createdAt,value
2022-09-12T00:01:10.154Z,1.45
2022-09-12T00:03:37.544Z,1.77
2022-09-12T00:06:28.349Z,1.42
2022-09-12T00:08:56.322Z,1.25
2022-09-12T00:11:23.339Z,1.40
2022-09-12T00:13:51.037Z,1.70
2022-09-12T00:16:21.008Z,1.75
2022-09-12T00:18:48.137Z,1.70
2022-09-12T00:21:15.922Z,1.40
2022-09-12T00:23:43.095Z,1.35
2022-09-12T00:26:10.202Z,1.55
2022-09-12T00:28:37.794Z,1.40
2022-09-12T00:31:10.005Z,1.67
2022-09-12T00:33:37.011Z,1.92
2022-09-12T00:36:11.878Z,1.63
2022-09-12T00:38:41.847Z,1.85
2022-09-12T00:41:17.980Z,1.42
2022-09-12T00:43:52.922Z,1.73
2022-09-12T00:46:41.758Z,1.33
2022-09-12T00:49:23.884Z,1.40
2022-09-12T00:52:04.377Z,1.70
2022-09-12T00:54:33.106Z,1.73
2022-09-12T00:57:03.600Z,1.98
2022-09-12T00:59:59.656Z,1.60
2022-09-12T01:02:26.674Z,1.30
2022-09-12T01:04:53.722Z,2.42
2022-09-12T01:07:20.586Z,1.92
2022-09-12T01:09:47.744Z,2.00
2022-09-12T01:12:15.135Z,2.20
2022-09-12T01:14:42.062Z,2.17
2022-09-12T01:17:12.746Z,2.05
2022-09-12T01:20:07.068Z,1.75
2022-09-12T01:22:49.386Z,1.95
2022-09-12T01:25:28.457Z,2.10
2022-09-12T01:28:18.165Z,2.33
2022-09-12T01:30:54.643Z,2.55
2022-09-12T01:33:33.850Z,2.00
2022-09-12T01:36:34.499Z,3.50
2022-09-12T01:39:06.518Z,2.88
2022-09-12T01:42:02.743Z,3.42
2022-09-12T01:44:32.466Z,3.28
2022-09-12T01:47:10.131Z,3.08
2022-09-12T01:49:50.448Z,3.60
2022-09-12T01:52:25.435Z,3.30
2022-09-12T01:54:59.796Z,2.97
2022-09-12T01:57:53.078Z,2.30
2022-09-12T02:00:20.168Z,3.60
2022-09-12T02:02:57.508Z,2.20
2022-09-12T02:05:50.781Z,2.28
2022-09-12T02:08:20.548Z,2.22
2022-09-12T02:10:54.416Z,2.17
2022-09-12T02:13:53.909Z,1.60
2022-09-12T02:16:48.873Z,1.40
2022-09-12T02:19:21.650Z,2.00
2022-09-12T02:21:57.307Z,1.55
2022-09-12T02:24:30.098Z,1.77
2022-09-12T02:27:19.102Z,1.02
2022-09-12T02:29:46.073Z,1.20
2022-09-12T02:32:35.039Z,1.23
2022-09-12T02:35:07.145Z,0.75
2022-09-12T02:37:39.432Z,1.00
2022-09-12T02:40:08.965Z,0.57
2022-09-12T02:42:36.841Z,0.93
2022-09-12T02:45:04.241Z,0.65
2022-09-12T02:47:43.160Z,0.77
2022-09-12T02:50:10.270Z,0.50
2022-09-12T02:52:37.286Z,0.70
2022-09-12T02:55:05.340Z,0.70
2022-09-12T02:57:32.467Z,0.65
2022-09-12T03:00:00.451Z,0.40
2022-09-12T03:02:30.777Z,0.47
2022-09-12T03:05:33.324Z,0.70
2022-09-12T03:08:20.010Z,0.50
2022-09-12T03:11:10.137Z,0.40
2022-09-12T03:13:45.849Z,1.05
2022-09-12T03:16:28.283Z,0.30
2022-09-12T03:19:24.022Z,0.82
2022-09-12T03:21:57.070Z,0.50
2022-09-12T03:24:35.857Z,0.30
2022-09-12T03:27:17.557Z,0.40
2022-09-12T03:29:45.862Z,0.30
2022-09-12T03:32:12.909Z,0.50
2022-09-12T03:34:39.863Z,0.77
2022-09-12T03:37:06.855Z,0.20
2022-09-12T03:39:33.937Z,0.50
2022-09-12T03:42:00.956Z,0.40
2022-09-12T03:44:27.944Z,0.45
2022-09-12T03:46:55.204Z,0.30
2022-09-12T03:49:22.078Z,0.50
2022-09-12T03:51:49.277Z,0.52
2022-09-12T03:54:17.488Z,0.22
2022-09-12T03:56:44.490Z,0.32
2022-09-12T03:59:11.470Z,0.20
2022-09-12T04:01:38.596Z,0.50
2022-09-12T04:04:05.576Z,1.00
2022-09-12T04:06:32.618Z,0.52
2022-09-12T04:08:59.795Z,0.30
2022-09-12T04:11:27.129Z,0.43
2022-09-12T04:13:54.374Z,0.50
2022-09-12T04:16:21.995Z,0.32
2022-09-12T04:18:49.191Z,0.47
2022-09-12T04:21:17.916Z,0.73
2022-09-12T04:23:44.874Z,0.50
2022-09-12T04:26:13.609Z,0.68
2022-09-12T04:28:40.797Z,0.40
2022-09-12T04:31:17.606Z,0.45
2022-09-12T04:33:45.175Z,0.60
2022-09-12T04:36:16.943Z,0.63
2022-09-12T04:38:44.710Z,0.50
2022-09-12T04:41:22.850Z,0.60
2022-09-12T04:44:03.535Z,0.52
2022-09-12T04:46:31.823Z,0.88
2022-09-12T04:48:58.920Z,0.95
2022-09-12T04:51:33.982Z,0.45
2022-09-12T04:54:11.504Z,0.30
2022-09-12T04:56:39.771Z,0.65
2022-09-12T04:59:07.143Z,0.57
2022-09-12T05:01:34.276Z,0.50
2022-09-12T05:04:02.139Z,0.38
2022-09-12T05:06:30.884Z,0.93
2022-09-12T05:08:58.593Z,0.55
2022-09-12T05:11:59.663Z,0.40
2022-09-12T05:14:17.729Z,0.68
2022-09-12T05:16:49.231Z,0.70
2022-09-12T05:19:16.752Z,0.57
2022-09-12T05:21:43.641Z,0.63
2022-09-12T05:24:10.952Z,0.50
2022-09-12T05:26:37.878Z,0.28
2022-09-12T05:29:05.241Z,0.80
2022-09-12T05:31:32.976Z,0.35
2022-09-12T05:34:00.047Z,0.90
2022-09-12T05:36:29.209Z,0.47
2022-09-12T05:38:56.653Z,0.40
2022-09-12T05:41:25.443Z,0.60
2022-09-12T05:43:57.457Z,0.45
2022-09-12T05:46:30.328Z,0.40
2022-09-12T05:48:58.349Z,0.38
2022-09-12T05:51:26.890Z,0.45
2022-09-12T05:53:57.887Z,0.30
2022-09-12T05:56:26.428Z,0.30
2022-09-12T05:58:55.957Z,0.40
2022-09-12T06:01:23.024Z,0.40
2022-09-12T06:03:55.087Z,0.28
2022-09-12T06:06:23.702Z,0.40
2022-09-12T06:08:52.536Z,0.20
2022-09-12T06:11:21.409Z,0.17
2022-09-12T06:13:48.470Z,0.10
2022-09-12T06:16:16.365Z,0.13
2022-09-12T06:19:04.368Z,0.80
2022-09-12T06:21:31.470Z,0.20
2022-09-12T06:24:01.580Z,0.20
2022-09-12T06:26:29.191Z,0.10
2022-09-12T06:28:57.153Z,0.20
2022-09-12T06:31:26.161Z,0.10
2022-09-12T06:33:56.586Z,0.10
2022-09-12T06:36:29.453Z,0.32
2022-09-12T06:38:57.873Z,0.20
2022-09-12T06:41:25.333Z,0.03
2022-09-12T06:43:52.415Z,0.10
2022-09-12T06:46:20.054Z,0.10
2022-09-12T06:48:47.129Z,0.10
2022-09-12T06:51:15.526Z,0.45
2022-09-12T06:53:44.697Z,0.10
2022-09-12T06:56:21.834Z,0.10
2022-09-12T06:58:50.033Z,0.10
2022-09-12T07:01:19.016Z,0.15
2022-09-12T07:03:53.484Z,0.10
2022-09-12T07:06:21.430Z,0.10
2022-09-12T07:08:48.474Z,0.30
2022-09-12T07:11:23.720Z,0.50
2022-09-12T07:13:52.459Z,0.10
2022-09-12T07:16:20.064Z,0.05
2022-09-12T07:18:51.397Z,0.20
2022-09-12T07:21:18.383Z,0.00
2022-09-12T07:23:45.607Z,0.10
2022-09-12T07:26:13.574Z,0.00
2022-09-12T07:28:40.632Z,0.03
2022-09-12T07:31:12.335Z,0.10
2022-09-12T07:33:39.429Z,0.03
2022-09-12T07:36:08.718Z,0.10
2022-09-12T07:38:35.574Z,0.00
2022-09-12T07:41:09.844Z,0.08
2022-09-12T07:43:36.850Z,0.10
2022-09-12T07:46:03.831Z,0.10
2022-09-12T07:48:30.834Z,0.00
2022-09-12T07:51:01.691Z,0.00
2022-09-12T07:53:32.309Z,0.00
2022-09-12T07:55:59.378Z,0.00
2022-09-12T07:58:26.836Z,0.10
2022-09-12T08:00:53.850Z,0.00
2022-09-12T08:03:20.885Z,0.00
2022-09-12T08:05:47.848Z,0.00
2022-09-12T08:08:16.011Z,0.00
2022-09-12T08:10:42.957Z,0.00
2022-09-12T08:13:10.933Z,0.00
2022-09-12T08:15:37.965Z,0.00
2022-09-12T08:18:05.061Z,0.00
2022-09-12T08:20:32.907Z,0.00
2022-09-12T08:22:59.783Z,0.00
2022-09-12T08:25:26.729Z,0.00
2022-09-12T08:27:53.673Z,0.10
2022-09-12T08:30:20.598Z,0.00
2022-09-12T08:32:47.604Z,0.00
2022-09-12T08:35:15.114Z,0.10
2022-09-12T08:37:42.075Z,0.10
2022-09-12T08:40:19.009Z,0.00
2022-09-12T08:43:10.248Z,0.00
2022-09-12T08:45:38.824Z,0.00
2022-09-12T08:48:05.781Z,0.00
2022-09-12T08:50:32.734Z,0.00
2022-09-12T08:53:04.920Z,0.32
2022-09-12T08:55:37.778Z,0.00
2022-09-12T08:58:30.725Z,0.00
2022-09-12T09:01:14.428Z,0.00
2022-09-12T09:04:20.629Z,0.15
2022-09-12T09:06:50.613Z,0.00
2022-09-12T09:09:39.976Z,0.00
2022-09-12T09:12:35.362Z,0.20
2022-09-12T09:15:13.211Z,0.00
2022-09-12T09:17:48.485Z,0.00
2022-09-12T09:20:31.931Z,0.00
2022-09-12T09:23:20.899Z,0.00
2022-09-12T09:25:54.034Z,0.00
2022-09-12T09:28:22.703Z,0.00
2022-09-12T09:30:49.802Z,0.00
2022-09-12T09:33:24.780Z,0.00
2022-09-12T09:36:14.906Z,0.00
2022-09-12T09:39:17.316Z,0.00
2022-09-12T09:42:09.414Z,0.00
2022-09-12T09:44:36.462Z,0.00
2022-09-12T09:47:03.578Z,0.00
2022-09-12T09:49:31.839Z,0.00
2022-09-12T09:52:01.018Z,0.00
2022-09-12T09:54:40.165Z,0.00
2022-09-12T09:57:35.164Z,0.10
2022-09-12T10:00:27.018Z,0.00
2022-09-12T10:03:00.239Z,0.00
2022-09-12T10:05:28.590Z,0.00
2022-09-12T10:07:55.736Z,0.00
2022-09-12T10:10:23.221Z,0.00
2022-09-12T10:12:50.288Z,0.00
2022-09-12T10:15:22.268Z,0.00
2022-09-12T10:17:50.161Z,0.10
2022-09-12T10:20:38.074Z,0.00
2022-09-12T10:23:24.740Z,0.00
2022-09-12T10:25:56.724Z,0.00
2022-09-12T10:28:27.874Z,0.03
2022-09-12T10:30:54.922Z,0.00
2022-09-12T10:33:21.930Z,0.00
2022-09-12T10:35:49.335Z,0.00
2022-09-12T10:38:25.055Z,0.00
2022-09-12T10:40:57.421Z,0.00
2022-09-12T10:43:50.729Z,0.00
2022-09-12T10:46:17.909Z,0.00
2022-09-12T10:48:48.744Z,0.00
2022-09-12T10:51:24.816Z,0.00
2022-09-12T10:53:59.943Z,0.00
2022-09-12T10:56:44.311Z,0.00
2022-09-12T10:59:20.488Z,0.00
2022-09-12T11:01:49.732Z,0.00
2022-09-12T11:04:23.888Z,0.00
2022-09-12T11:07:24.863Z,0.00
2022-09-12T11:10:03.760Z,0.00
2022-09-12T11:12:36.794Z,0.00
2022-09-12T11:15:24.822Z,0.00
2022-09-12T11:17:54.767Z,0.10
2022-09-12T11:20:27.241Z,0.00
2022-09-12T11:23:24.594Z,0.00
2022-09-12T11:26:12.613Z,0.00
2022-09-12T11:28:48.068Z,0.00
2022-09-12T11:31:50.424Z,0.00
2022-09-12T11:34:26.149Z,0.00
2022-09-12T11:37:47.448Z,0.10
2022-09-12T11:40:42.455Z,0.00
2022-09-12T11:43:38.314Z,0.00
2022-09-12T11:46:30.133Z,0.10
2022-09-12T11:49:15.524Z,0.00
2022-09-12T11:51:45.432Z,0.00
2022-09-12T11:54:27.295Z,0.00
2022-09-12T11:57:05.836Z,0.00
2022-09-12T11:59:59.699Z,0.00
2022-09-12T12:02:30.919Z,0.00
2022-09-12T12:05:08.128Z,0.00
2022-09-12T12:07:45.749Z,0.00
2022-09-12T12:10:40.232Z,0.00
2022-09-12T12:13:21.603Z,0.00
2022-09-12T12:15:54.056Z,0.00
2022-09-12T12:18:24.515Z,0.00
2022-09-12T12:20:51.890Z,0.00
2022-09-12T12:23:34.787Z,0.00
2022-09-12T12:26:02.727Z,0.00
2022-09-12T12:28:41.822Z,0.08
2022-09-12T12:31:10.637Z,0.00
2022-09-12T12:33:37.594Z,0.00
2022-09-12T12:36:12.514Z,0.25
2022-09-12T12:38:40.415Z,0.00
2022-09-12T12:41:19.427Z,0.00
2022-09-12T12:43:50.083Z,0.00
2022-09-12T12:46:20.652Z,0.00
2022-09-12T12:49:17.950Z,0.00
2022-09-12T12:51:54.409Z,0.00
2022-09-12T12:54:41.146Z,0.00
2022-09-12T12:57:27.650Z,0.00
2022-09-12T12:59:54.615Z,0.00
2022-09-12T13:02:31.072Z,0.00
2022-09-12T13:04:59.626Z,0.00
2022-09-12T13:07:35.172Z,0.00
2022-09-12T13:12:49.645Z,0.00
2022-09-12T13:15:50.711Z,0.20
2022-09-12T13:18:47.570Z,0.00
2022-09-12T13:21:16.355Z,0.00
2022-09-12T13:23:43.685Z,0.00
2022-09-12T13:26:25.202Z,0.00
2022-09-12T13:29:13.014Z,0.03
2022-09-12T13:31:43.111Z,0.00
2022-09-12T13:34:18.777Z,0.00
2022-09-12T13:37:17.197Z,0.00
2022-09-12T13:39:52.703Z,0.00
2022-09-12T13:42:37.931Z,0.00
2022-09-12T13:45:06.322Z,0.00
2022-09-12T13:47:36.025Z,0.00
2022-09-12T13:50:04.724Z,0.00
2022-09-12T13:52:33.765Z,0.00
2022-09-12T13:55:01.499Z,0.00
2022-09-12T13:57:37.935Z,0.00
2022-09-12T14:00:16.286Z,0.00
2022-09-12T14:02:43.476Z,0.00
2022-09-12T14:05:24.783Z,0.00
2022-09-12T14:08:01.370Z,0.05
2022-09-12T14:10:37.839Z,0.00
2022-09-12T14:13:11.502Z,0.10
2022-09-12T14:15:38.584Z,0.10
2022-09-12T14:18:06.742Z,0.00
2022-09-12T14:20:37.105Z,0.00
2022-09-12T14:23:15.284Z,0.00
2022-09-12T14:25:42.646Z,0.05
2022-09-12T14:28:11.930Z,0.10
2022-09-12T14:30:39.066Z,0.00
2022-09-12T14:33:12.460Z,0.00
2022-09-12T14:35:50.078Z,0.10
2022-09-12T14:38:17.026Z,0.10
2022-09-12T14:40:45.988Z,0.10
2022-09-12T14:43:32.628Z,0.00
2022-09-12T14:46:01.564Z,0.20
2022-09-12T14:48:31.085Z,0.00
2022-09-12T14:50:58.189Z,0.00
2022-09-12T14:53:31.539Z,0.10
2022-09-12T14:56:07.161Z,0.10
2022-09-12T14:58:34.565Z,0.70
2022-09-12T15:01:07.944Z,0.10
2022-09-12T15:03:44.901Z,0.00
2022-09-12T15:06:31.452Z,0.10
2022-09-12T15:09:05.931Z,0.10
2022-09-12T15:11:33.815Z,0.00
2022-09-12T15:14:12.574Z,0.00
2022-09-12T15:16:39.560Z,0.10
2022-09-12T15:19:06.521Z,0.00
2022-09-12T15:21:33.519Z,0.00
2022-09-12T15:24:00.560Z,0.00
2022-09-12T15:26:30.453Z,0.00
2022-09-12T15:28:57.988Z,0.10
2022-09-12T15:31:27.083Z,0.43
2022-09-12T15:33:54.374Z,0.20
2022-09-12T15:36:22.954Z,0.10
2022-09-12T15:38:50.019Z,0.50
2022-09-12T15:41:21.795Z,0.75
2022-09-12T15:43:48.855Z,0.75
2022-09-12T15:46:16.919Z,1.08
2022-09-12T15:48:44.299Z,0.10
2022-09-12T15:51:15.972Z,0.10
2022-09-12T15:53:43.224Z,0.08
2022-09-12T15:56:10.588Z,0.32
2022-09-12T15:58:49.797Z,0.00
2022-09-12T16:01:25.130Z,0.00
2022-09-12T16:03:52.292Z,0.10
2022-09-12T16:06:19.281Z,0.20
2022-09-12T16:08:46.237Z,0.20
2022-09-12T16:11:26.625Z,0.00
2022-09-12T16:13:53.785Z,0.08
2022-09-12T16:16:20.837Z,0.00
2022-09-12T16:18:47.996Z,0.00
2022-09-12T16:21:15.875Z,0.10
2022-09-12T16:23:47.040Z,0.00
2022-09-12T16:26:14.550Z,0.20
2022-09-12T16:28:41.703Z,0.20
2022-09-12T16:31:11.941Z,0.22
2022-09-12T16:33:39.029Z,0.10
2022-09-12T16:36:07.939Z,0.20
2022-09-12T16:38:35.821Z,0.10
2022-09-12T16:41:03.778Z,0.10
2022-09-12T16:43:31.275Z,0.00
2022-09-12T16:46:08.432Z,0.00
2022-09-12T16:48:35.553Z,0.00
2022-09-12T16:51:04.475Z,0.10
2022-09-12T16:53:33.058Z,0.00
2022-09-12T16:56:00.075Z,0.00
2022-09-12T16:58:27.747Z,0.00
2022-09-12T17:01:02.018Z,0.00
2022-09-12T17:03:29.144Z,0.00
2022-09-12T17:06:03.855Z,0.10
2022-09-12T17:08:31.065Z,0.00
2022-09-12T17:11:06.399Z,0.00
2022-09-12T17:14:03.341Z,0.00
2022-09-12T17:16:23.769Z,0.00
2022-09-12T17:18:51.610Z,0.00
2022-09-12T17:21:18.710Z,0.00
2022-09-12T17:23:45.833Z,0.00
2022-09-12T17:26:12.994Z,0.00
2022-09-12T17:28:40.195Z,0.00
2022-09-12T17:31:08.885Z,0.00
2022-09-12T17:33:35.914Z,0.00
2022-09-12T17:36:08.250Z,0.00
2022-09-12T17:38:36.254Z,0.00
2022-09-12T17:41:11.986Z,0.00
2022-09-12T17:43:40.147Z,0.00
2022-09-12T17:46:08.309Z,0.00
2022-09-12T17:48:35.579Z,0.20
2022-09-12T17:51:13.370Z,0.00
2022-09-12T17:53:41.476Z,0.00
2022-09-12T17:56:08.965Z,0.00
2022-09-12T17:58:36.073Z,0.00
2022-09-12T18:01:33.555Z,0.00
2022-09-12T18:04:01.182Z,0.00
2022-09-12T18:06:28.700Z,0.00
2022-09-12T18:08:55.805Z,0.00
2022-09-12T18:11:22.952Z,0.00
2022-09-12T18:13:50.673Z,0.03
2022-09-12T18:16:18.289Z,0.10
2022-09-12T18:18:46.006Z,0.38
2022-09-12T18:21:13.572Z,0.20
2022-09-12T18:23:40.554Z,0.10
2022-09-12T18:26:09.324Z,0.00
2022-09-12T18:28:37.699Z,0.08
2022-09-12T18:31:05.139Z,0.05
2022-09-12T18:33:32.244Z,0.22
2022-09-12T18:36:04.556Z,0.20
2022-09-12T18:38:32.044Z,0.20
2022-09-12T18:41:06.254Z,0.10
2022-09-12T18:43:33.403Z,0.10
2022-09-12T18:46:04.718Z,0.10
2022-09-12T18:48:32.730Z,0.20
2022-09-12T18:51:09.697Z,0.10
2022-09-12T18:53:37.137Z,0.20
2022-09-12T18:56:08.749Z,0.30
2022-09-12T18:58:40.445Z,0.73
2022-09-12T19:01:19.219Z,0.38
2022-09-12T19:03:46.669Z,0.57
2022-09-12T19:06:17.638Z,0.75
2022-09-12T19:08:45.705Z,0.45
2022-09-12T19:11:13.142Z,0.52
2022-09-12T19:13:42.482Z,0.50
2022-09-12T19:16:11.344Z,0.50
2022-09-12T19:18:39.062Z,0.40
2022-09-12T19:21:07.220Z,0.20
2022-09-12T19:23:35.550Z,0.30
2022-09-12T19:26:05.229Z,0.13
2022-09-12T19:28:32.546Z,0.10
2022-09-12T19:30:59.682Z,0.10
2022-09-12T19:33:27.841Z,0.10
2022-09-12T19:35:54.909Z,0.30
2022-09-12T19:38:22.039Z,0.10
2022-09-12T19:40:59.716Z,0.03
2022-09-12T19:43:27.574Z,0.10
2022-09-12T19:45:55.039Z,0.10
2022-09-12T19:48:22.801Z,0.03
2022-09-12T19:50:50.718Z,0.30
2022-09-12T19:53:19.050Z,0.00
2022-09-12T19:55:48.482Z,0.00
2022-09-12T19:58:15.808Z,0.00
2022-09-12T20:00:43.587Z,0.10
2022-09-12T20:03:12.394Z,0.08
2022-09-12T20:05:42.661Z,0.10
2022-09-12T20:08:10.055Z,0.10
2022-09-12T20:10:37.341Z,0.10
2022-09-12T20:13:04.844Z,0.10
2022-09-12T20:15:31.869Z,0.10
2022-09-12T20:17:59.296Z,0.10
2022-09-12T20:20:27.613Z,0.13
2022-09-12T20:22:54.724Z,0.20
2022-09-12T20:25:21.887Z,0.10
2022-09-12T20:27:48.982Z,0.13
2022-09-12T20:30:16.663Z,0.17
2022-09-12T20:32:43.777Z,0.10
2022-09-12T20:35:11.466Z,0.32
2022-09-12T20:37:40.399Z,0.20
2022-09-12T20:40:08.678Z,0.20
2022-09-12T20:42:36.538Z,0.10
2022-09-12T20:45:04.565Z,0.40
2022-09-12T20:47:31.633Z,0.10
2022-09-12T20:49:58.631Z,0.10
2022-09-12T20:52:25.532Z,0.10
2022-09-12T20:54:52.773Z,0.10
2022-09-12T20:57:19.738Z,0.15
2022-09-12T20:59:46.792Z,0.10
2022-09-12T21:02:14.373Z,0.10
2022-09-12T21:04:41.459Z,0.10
2022-09-12T21:07:08.380Z,0.35
2022-09-12T21:09:35.515Z,0.17
2022-09-12T21:12:02.925Z,0.10
2022-09-12T21:14:30.011Z,0.20
2022-09-12T21:16:56.967Z,0.20
2022-09-12T21:19:23.983Z,0.50
2022-09-12T21:21:51.043Z,0.10
2022-09-12T21:24:18.217Z,0.13
2022-09-12T21:26:48.036Z,0.22
2022-09-12T21:29:15.210Z,0.20
2022-09-12T21:31:46.273Z,0.20
2022-09-12T21:34:13.417Z,0.20
2022-09-12T21:36:40.396Z,0.35
2022-09-12T21:39:07.358Z,0.52
2022-09-12T21:41:34.360Z,0.28
2022-09-12T21:44:01.719Z,0.40
2022-09-12T21:46:28.896Z,0.20
2022-09-12T21:48:56.073Z,0.50
2022-09-12T21:51:23.162Z,0.60
2022-09-12T21:53:50.196Z,0.17
2022-09-12T21:56:17.637Z,0.10
2022-09-12T21:58:44.693Z,0.43
2022-09-12T22:01:13.176Z,0.17
2022-09-12T22:03:43.599Z,0.35
2022-09-12T22:06:10.840Z,0.20
2022-09-12T22:08:38.976Z,0.10
2022-09-12T22:11:09.415Z,0.25
2022-09-12T22:13:38.026Z,0.63
2022-09-12T22:16:05.532Z,0.10
2022-09-12T22:18:33.847Z,0.10
2022-09-12T22:21:02.431Z,0.13
2022-09-12T22:23:47.698Z,0.10
2022-09-12T22:26:17.142Z,0.20
2022-09-12T22:28:45.367Z,0.35
2022-09-12T22:31:12.692Z,0.40
2022-09-12T22:33:40.158Z,0.40
2022-09-12T22:36:07.610Z,0.28
2022-09-12T22:38:34.703Z,0.30
2022-09-12T22:41:07.933Z,0.13
2022-09-12T22:43:35.535Z,0.10
2022-09-12T22:46:06.429Z,0.10
2022-09-12T22:48:34.811Z,0.17
2022-09-12T22:51:01.825Z,0.20
2022-09-12T22:53:28.872Z,0.30
2022-09-12T22:55:55.957Z,0.15
2022-09-12T22:58:26.077Z,0.25
2022-09-12T23:00:53.221Z,0.40
2022-09-12T23:03:20.402Z,0.20
2022-09-12T23:05:47.755Z,0.10
2022-09-12T23:08:16.018Z,0.13
2022-09-12T23:10:43.976Z,0.17
2022-09-12T23:13:11.897Z,0.20
2022-09-12T23:15:39.963Z,0.30
2022-09-12T23:18:06.986Z,0.10
2022-09-12T23:20:34.030Z,0.30
2022-09-12T23:23:01.016Z,0.50
2022-09-12T23:25:27.986Z,0.57
2022-09-12T23:27:55.054Z,0.30
2022-09-12T23:30:22.041Z,3.45
2022-09-12T23:32:49.359Z,4.35
2022-09-12T23:35:20.442Z,3.00
2022-09-12T23:37:47.729Z,2.70
2022-09-12T23:40:14.853Z,1.38
2022-09-12T23:42:41.813Z,0.70
2022-09-12T23:45:10.272Z,0.35
2022-09-12T23:47:37.227Z,0.70
2022-09-12T23:50:04.482Z,0.57
2022-09-12T23:52:31.444Z,0.80
2022-09-12T23:54:58.335Z,1.52
2022-09-12T23:57:25.347Z,0.77
2022-09-12T23:59:52.475Z,0.60
